sensor_id;sensor_type;location;lat;lon;timestamp;P1;durP1;ratioP1;P2;durP2;ratioP2
63203;SDS011;49297;43.210;27.914;2022-09-17T00:00:45;13.23;;;10.73;;
63203;SDS011;49297;43.210;27.914;2022-09-17T00:03:13;16.90;;;10.82;;
63203;SDS011;49297;43.210;27.914;2022-09-17T00:08:36;15.35;;;11.77;;
63203;SDS011;49297;43.210;27.914;2022-09-17T00:11:10;20.23;;;12.80;;
63203;SDS011;49297;43.210;27.914;2022-09-17T00:13:44;14.38;;;12.18;;
63203;SDS011;49297;43.210;27.914;2022-09-17T00:16:10;20.85;;;13.13;;
63203;SDS011;49297;43.210;27.914;2022-09-17T00:18:36;17.67;;;11.25;;
63203;SDS011;49297;43.210;27.914;2022-09-17T00:21:06;17.80;;;12.40;;
63203;SDS011;49297;43.210;27.914;2022-09-17T00:23:40;21.07;;;11.50;;
63203;SDS011;49297;43.210;27.914;2022-09-17T00:26:05;14.20;;;11.75;;
63203;SDS011;49297;43.210;27.914;2022-09-17T00:28:31;16.17;;;11.95;;
63203;SDS011;49297;43.210;27.914;2022-09-17T00:30:57;13.00;;;11.65;;
63203;SDS011;49297;43.210;27.914;2022-09-17T00:33:23;14.30;;;11.40;;
63203;SDS011;49297;43.210;27.914;2022-09-17T00:35:58;15.50;;;12.32;;
63203;SDS011;49297;43.210;27.914;2022-09-17T00:38:26;18.60;;;13.02;;
63203;SDS011;49297;43.210;27.914;2022-09-17T00:40:52;18.02;;;12.70;;
63203;SDS011;49297;43.210;27.914;2022-09-17T00:46:08;14.57;;;12.05;;
63203;SDS011;49297;43.210;27.914;2022-09-17T00:48:41;15.65;;;12.95;;
63203;SDS011;49297;43.210;27.914;2022-09-17T00:51:07;18.30;;;12.70;;
63203;SDS011;49297;43.210;27.914;2022-09-17T00:53:35;16.02;;;12.27;;
63203;SDS011;49297;43.210;27.914;2022-09-17T00:56:23;19.70;;;13.82;;
63203;SDS011;49297;43.210;27.914;2022-09-17T00:58:50;19.65;;;16.00;;
63203;SDS011;49297;43.210;27.914;2022-09-17T01:01:17;18.30;;;14.93;;
63203;SDS011;49297;43.210;27.914;2022-09-17T01:03:43;28.55;;;17.27;;
63203;SDS011;49297;43.210;27.914;2022-09-17T01:14:01;27.70;;;21.20;;
63203;SDS011;49297;43.210;27.914;2022-09-17T01:22:17;24.23;;;19.45;;
63203;SDS011;49297;43.210;27.914;2022-09-17T01:24:59;30.02;;;18.55;;
63203;SDS011;49297;43.210;27.914;2022-09-17T01:33:47;25.17;;;18.42;;
63203;SDS011;49297;43.210;27.914;2022-09-17T01:36:24;27.70;;;17.08;;
63203;SDS011;49297;43.210;27.914;2022-09-17T01:39:05;25.85;;;16.25;;
63203;SDS011;49297;43.210;27.914;2022-09-17T01:41:40;18.83;;;15.43;;
63203;SDS011;49297;43.210;27.914;2022-09-17T01:46:51;20.25;;;14.07;;
63203;SDS011;49297;43.210;27.914;2022-09-17T01:49:22;20.30;;;13.98;;
63203;SDS011;49297;43.210;27.914;2022-09-17T01:54:28;20.30;;;13.90;;
63203;SDS011;49297;43.210;27.914;2022-09-17T01:57:00;16.38;;;14.65;;
63203;SDS011;49297;43.210;27.914;2022-09-17T01:59:31;19.10;;;13.90;;
63203;SDS011;49297;43.210;27.914;2022-09-17T02:02:02;18.90;;;13.63;;
63203;SDS011;49297;43.210;27.914;2022-09-17T02:04:35;20.63;;;14.95;;
63203;SDS011;49297;43.210;27.914;2022-09-17T02:07:10;22.17;;;14.90;;
63203;SDS011;49297;43.210;27.914;2022-09-17T02:09:50;22.02;;;14.05;;
63203;SDS011;49297;43.210;27.914;2022-09-17T02:15:11;22.70;;;16.33;;
63203;SDS011;49297;43.210;27.914;2022-09-17T02:18:10;22.75;;;20.15;;
63203;SDS011;49297;43.210;27.914;2022-09-17T02:23:56;26.63;;;21.20;;
63203;SDS011;49297;43.210;27.914;2022-09-17T02:26:30;25.63;;;20.90;;
63203;SDS011;49297;43.210;27.914;2022-09-17T02:29:01;26.45;;;20.42;;
63203;SDS011;49297;43.210;27.914;2022-09-17T02:31:33;30.35;;;21.35;;
63203;SDS011;49297;43.210;27.914;2022-09-17T02:33:59;22.07;;;19.30;;
63203;SDS011;49297;43.210;27.914;2022-09-17T02:36:27;30.58;;;20.85;;
63203;SDS011;49297;43.210;27.914;2022-09-17T02:38:56;26.60;;;19.33;;
63203;SDS011;49297;43.210;27.914;2022-09-17T02:41:25;28.13;;;20.15;;
63203;SDS011;49297;43.210;27.914;2022-09-17T02:49:30;26.42;;;19.77;;
63203;SDS011;49297;43.210;27.914;2022-09-17T03:00:42;31.25;;;20.27;;
63203;SDS011;49297;43.210;27.914;2022-09-17T03:05:43;19.60;;;17.17;;
63203;SDS011;49297;43.210;27.914;2022-09-17T03:08:11;22.87;;;17.40;;
63203;SDS011;49297;43.210;27.914;2022-09-17T03:10:38;21.48;;;16.90;;
63203;SDS011;49297;43.210;27.914;2022-09-17T03:13:05;24.35;;;17.00;;
63203;SDS011;49297;43.210;27.914;2022-09-17T03:15:31;19.63;;;17.13;;
63203;SDS011;49297;43.210;27.914;2022-09-17T03:17:57;25.50;;;17.37;;
63203;SDS011;49297;43.210;27.914;2022-09-17T03:20:22;25.13;;;16.17;;
63203;SDS011;49297;43.210;27.914;2022-09-17T03:22:50;19.08;;;16.52;;
63203;SDS011;49297;43.210;27.914;2022-09-17T03:25:16;27.65;;;18.08;;
63203;SDS011;49297;43.210;27.914;2022-09-17T03:27:42;23.33;;;16.98;;
63203;SDS011;49297;43.210;27.914;2022-09-17T03:30:08;24.70;;;18.60;;
63203;SDS011;49297;43.210;27.914;2022-09-17T03:32:34;22.38;;;17.75;;
63203;SDS011;49297;43.210;27.914;2022-09-17T03:34:59;25.63;;;20.60;;
63203;SDS011;49297;43.210;27.914;2022-09-17T03:37:25;27.90;;;21.98;;
63203;SDS011;49297;43.210;27.914;2022-09-17T03:39:51;29.27;;;23.27;;
63203;SDS011;49297;43.210;27.914;2022-09-17T03:42:18;36.20;;;25.83;;
63203;SDS011;49297;43.210;27.914;2022-09-17T03:44:43;35.25;;;27.33;;
63203;SDS011;49297;43.210;27.914;2022-09-17T03:47:09;31.17;;;27.97;;
63203;SDS011;49297;43.210;27.914;2022-09-17T03:49:36;33.15;;;28.42;;
63203;SDS011;49297;43.210;27.914;2022-09-17T03:52:02;32.67;;;29.15;;
63203;SDS011;49297;43.210;27.914;2022-09-17T03:54:28;32.90;;;29.70;;
63203;SDS011;49297;43.210;27.914;2022-09-17T03:56:53;33.88;;;30.65;;
63203;SDS011;49297;43.210;27.914;2022-09-17T03:59:19;35.47;;;31.67;;
63203;SDS011;49297;43.210;27.914;2022-09-17T04:01:45;37.07;;;31.87;;
63203;SDS011;49297;43.210;27.914;2022-09-17T04:04:10;37.53;;;32.38;;
63203;SDS011;49297;43.210;27.914;2022-09-17T04:06:36;41.33;;;33.83;;
63203;SDS011;49297;43.210;27.914;2022-09-17T04:09:02;30.40;;;27.48;;
63203;SDS011;49297;43.210;27.914;2022-09-17T04:11:29;32.90;;;28.70;;
63203;SDS011;49297;43.210;27.914;2022-09-17T04:13:55;31.77;;;27.92;;
63203;SDS011;49297;43.210;27.914;2022-09-17T04:16:21;41.30;;;33.00;;
63203;SDS011;49297;43.210;27.914;2022-09-17T04:18:47;34.08;;;28.25;;
63203;SDS011;49297;43.210;27.914;2022-09-17T04:21:31;29.38;;;26.05;;
63203;SDS011;49297;43.210;27.914;2022-09-17T04:23:56;27.63;;;24.17;;
63203;SDS011;49297;43.210;27.914;2022-09-17T04:26:22;25.77;;;23.02;;
63203;SDS011;49297;43.210;27.914;2022-09-17T04:28:48;30.02;;;25.38;;
63203;SDS011;49297;43.210;27.914;2022-09-17T04:31:14;32.37;;;23.77;;
63203;SDS011;49297;43.210;27.914;2022-09-17T04:33:39;32.45;;;24.48;;
63203;SDS011;49297;43.210;27.914;2022-09-17T04:36:05;26.40;;;22.10;;
63203;SDS011;49297;43.210;27.914;2022-09-17T04:38:31;25.27;;;22.50;;
63203;SDS011;49297;43.210;27.914;2022-09-17T04:40:59;33.97;;;30.38;;
63203;SDS011;49297;43.210;27.914;2022-09-17T04:43:25;41.33;;;33.95;;
63203;SDS011;49297;43.210;27.914;2022-09-17T04:45:51;46.10;;;41.03;;
63203;SDS011;49297;43.210;27.914;2022-09-17T04:48:16;58.65;;;49.38;;
63203;SDS011;49297;43.210;27.914;2022-09-17T04:50:42;55.63;;;49.80;;
63203;SDS011;49297;43.210;27.914;2022-09-17T04:53:08;54.78;;;48.83;;
63203;SDS011;49297;43.210;27.914;2022-09-17T04:55:34;57.15;;;51.00;;
63203;SDS011;49297;43.210;27.914;2022-09-17T04:57:59;50.00;;;45.20;;
63203;SDS011;49297;43.210;27.914;2022-09-17T05:00:25;49.13;;;42.95;;
63203;SDS011;49297;43.210;27.914;2022-09-17T05:02:52;46.50;;;41.53;;
63203;SDS011;49297;43.210;27.914;2022-09-17T05:05:19;43.25;;;37.88;;
63203;SDS011;49297;43.210;27.914;2022-09-17T05:07:46;42.67;;;38.33;;
63203;SDS011;49297;43.210;27.914;2022-09-17T05:10:12;44.50;;;35.95;;
63203;SDS011;49297;43.210;27.914;2022-09-17T05:12:40;36.03;;;32.17;;
63203;SDS011;49297;43.210;27.914;2022-09-17T05:15:06;35.38;;;31.60;;
63203;SDS011;49297;43.210;27.914;2022-09-17T05:17:32;34.28;;;30.90;;
63203;SDS011;49297;43.210;27.914;2022-09-17T05:19:58;44.87;;;33.20;;
63203;SDS011;49297;43.210;27.914;2022-09-17T05:22:23;37.17;;;32.03;;
63203;SDS011;49297;43.210;27.914;2022-09-17T05:24:49;37.88;;;32.38;;
63203;SDS011;49297;43.210;27.914;2022-09-17T05:27:15;35.77;;;31.83;;
63203;SDS011;49297;43.210;27.914;2022-09-17T05:29:41;37.60;;;33.40;;
63203;SDS011;49297;43.210;27.914;2022-09-17T05:32:06;40.03;;;31.17;;
63203;SDS011;49297;43.210;27.914;2022-09-17T05:34:32;33.42;;;30.25;;
63203;SDS011;49297;43.210;27.914;2022-09-17T05:36:58;36.87;;;33.23;;
63203;SDS011;49297;43.210;27.914;2022-09-17T05:39:24;36.78;;;33.20;;
63203;SDS011;49297;43.210;27.914;2022-09-17T05:41:53;41.78;;;35.78;;
63203;SDS011;49297;43.210;27.914;2022-09-17T05:44:19;44.65;;;37.10;;
63203;SDS011;49297;43.210;27.914;2022-09-17T05:46:45;41.28;;;37.15;;
63203;SDS011;49297;43.210;27.914;2022-09-17T05:49:12;43.00;;;35.07;;
63203;SDS011;49297;43.210;27.914;2022-09-17T05:51:40;38.40;;;34.40;;
63203;SDS011;49297;43.210;27.914;2022-09-17T05:54:06;37.22;;;33.20;;
63203;SDS011;49297;43.210;27.914;2022-09-17T05:56:35;41.47;;;35.33;;
63203;SDS011;49297;43.210;27.914;2022-09-17T05:59:01;43.85;;;37.35;;
63203;SDS011;49297;43.210;27.914;2022-09-17T06:01:27;37.63;;;33.70;;
63203;SDS011;49297;43.210;27.914;2022-09-17T06:03:53;36.30;;;32.43;;
63203;SDS011;49297;43.210;27.914;2022-09-17T06:06:19;42.63;;;32.45;;
63203;SDS011;49297;43.210;27.914;2022-09-17T06:08:45;32.92;;;29.27;;
63203;SDS011;49297;43.210;27.914;2022-09-17T06:11:11;32.33;;;28.70;;
63203;SDS011;49297;43.210;27.914;2022-09-17T06:13:37;36.00;;;28.05;;
63203;SDS011;49297;43.210;27.914;2022-09-17T06:16:03;35.53;;;28.33;;
63203;SDS011;49297;43.210;27.914;2022-09-17T06:18:29;44.22;;;29.88;;
63203;SDS011;49297;43.210;27.914;2022-09-17T06:20:57;33.45;;;27.08;;
63203;SDS011;49297;43.210;27.914;2022-09-17T06:23:27;28.77;;;24.00;;
63203;SDS011;49297;43.210;27.914;2022-09-17T06:26:00;31.48;;;25.13;;
63203;SDS011;49297;43.210;27.914;2022-09-17T06:28:27;34.90;;;23.17;;
63203;SDS011;49297;43.210;27.914;2022-09-17T06:30:54;28.40;;;22.67;;
63203;SDS011;49297;43.210;27.914;2022-09-17T06:33:24;22.88;;;20.45;;
63203;SDS011;49297;43.210;27.914;2022-09-17T06:35:57;29.08;;;21.85;;
63203;SDS011;49297;43.210;27.914;2022-09-17T06:38:25;31.20;;;21.63;;
63203;SDS011;49297;43.210;27.914;2022-09-17T06:40:52;31.40;;;19.13;;
63203;SDS011;49297;43.210;27.914;2022-09-17T06:43:18;23.35;;;17.73;;
63203;SDS011;49297;43.210;27.914;2022-09-17T06:45:54;20.90;;;15.50;;
63203;SDS011;49297;43.210;27.914;2022-09-17T06:48:25;24.40;;;14.23;;
63203;SDS011;49297;43.210;27.914;2022-09-17T06:50:51;17.05;;;13.32;;
63203;SDS011;49297;43.210;27.914;2022-09-17T06:53:19;16.98;;;13.60;;
63203;SDS011;49297;43.210;27.914;2022-09-17T06:55:45;19.27;;;14.02;;
63203;SDS011;49297;43.210;27.914;2022-09-17T06:58:11;18.30;;;13.07;;
63203;SDS011;49297;43.210;27.914;2022-09-17T07:00:36;17.67;;;15.38;;
63203;SDS011;49297;43.210;27.914;2022-09-17T07:03:05;15.63;;;12.77;;
63203;SDS011;49297;43.210;27.914;2022-09-17T07:05:31;13.82;;;11.50;;
63203;SDS011;49297;43.210;27.914;2022-09-17T07:07:59;16.73;;;11.33;;
63203;SDS011;49297;43.210;27.914;2022-09-17T07:10:26;15.30;;;10.82;;
63203;SDS011;49297;43.210;27.914;2022-09-17T07:12:52;12.00;;;10.57;;
63203;SDS011;49297;43.210;27.914;2022-09-17T07:15:18;15.50;;;10.52;;
63203;SDS011;49297;43.210;27.914;2022-09-17T07:18:07;17.83;;;10.02;;
63203;SDS011;49297;43.210;27.914;2022-09-17T07:20:34;15.68;;;9.18;;
63203;SDS011;49297;43.210;27.914;2022-09-17T07:23:00;15.95;;;9.73;;
63203;SDS011;49297;43.210;27.914;2022-09-17T07:25:26;12.57;;;8.93;;
63203;SDS011;49297;43.210;27.914;2022-09-17T07:27:52;13.73;;;8.48;;
63203;SDS011;49297;43.210;27.914;2022-09-17T07:30:18;10.77;;;6.65;;
63203;SDS011;49297;43.210;27.914;2022-09-17T07:32:45;16.07;;;7.20;;
63203;SDS011;49297;43.210;27.914;2022-09-17T07:35:11;10.65;;;5.32;;
63203;SDS011;49297;43.210;27.914;2022-09-17T07:37:37;7.82;;;4.07;;
63203;SDS011;49297;43.210;27.914;2022-09-17T07:40:03;7.80;;;4.45;;
63203;SDS011;49297;43.210;27.914;2022-09-17T07:42:32;8.82;;;4.22;;
63203;SDS011;49297;43.210;27.914;2022-09-17T07:45:02;8.07;;;4.75;;
63203;SDS011;49297;43.210;27.914;2022-09-17T07:47:36;10.40;;;4.97;;
63203;SDS011;49297;43.210;27.914;2022-09-17T07:50:03;8.45;;;4.53;;
63203;SDS011;49297;43.210;27.914;2022-09-17T07:52:29;8.82;;;4.20;;
63203;SDS011;49297;43.210;27.914;2022-09-17T07:54:58;9.07;;;4.23;;
63203;SDS011;49297;43.210;27.914;2022-09-17T07:57:24;12.10;;;5.18;;
63203;SDS011;49297;43.210;27.914;2022-09-17T07:59:49;10.57;;;5.03;;
63203;SDS011;49297;43.210;27.914;2022-09-17T08:02:15;12.68;;;4.70;;
63203;SDS011;49297;43.210;27.914;2022-09-17T08:04:41;11.53;;;4.83;;
63203;SDS011;49297;43.210;27.914;2022-09-17T08:07:11;9.18;;;3.97;;
63203;SDS011;49297;43.210;27.914;2022-09-17T08:09:37;6.95;;;4.07;;
63203;SDS011;49297;43.210;27.914;2022-09-17T08:12:03;8.75;;;4.10;;
63203;SDS011;49297;43.210;27.914;2022-09-17T08:14:33;8.55;;;4.65;;
63203;SDS011;49297;43.210;27.914;2022-09-17T08:19:55;7.97;;;4.47;;
63203;SDS011;49297;43.210;27.914;2022-09-17T08:22:24;9.52;;;4.82;;
63203;SDS011;49297;43.210;27.914;2022-09-17T08:24:49;10.13;;;6.10;;
63203;SDS011;49297;43.210;27.914;2022-09-17T08:27:15;9.82;;;5.38;;
63203;SDS011;49297;43.210;27.914;2022-09-17T08:29:41;17.50;;;9.13;;
63203;SDS011;49297;43.210;27.914;2022-09-17T08:32:07;19.70;;;12.73;;
63203;SDS011;49297;43.210;27.914;2022-09-17T08:34:33;8.18;;;3.88;;
63203;SDS011;49297;43.210;27.914;2022-09-17T08:36:58;15.57;;;6.15;;
63203;SDS011;49297;43.210;27.914;2022-09-17T08:39:24;8.40;;;4.63;;
63203;SDS011;49297;43.210;27.914;2022-09-17T08:44:41;12.80;;;5.03;;
63203;SDS011;49297;43.210;27.914;2022-09-17T08:49:58;9.05;;;4.60;;
63203;SDS011;49297;43.210;27.914;2022-09-17T08:55:32;11.05;;;4.45;;
63203;SDS011;49297;43.210;27.914;2022-09-17T09:06:45;9.10;;;4.50;;
63203;SDS011;49297;43.210;27.914;2022-09-17T09:09:20;6.43;;;4.05;;
63203;SDS011;49297;43.210;27.914;2022-09-17T09:11:52;10.03;;;4.07;;
63203;SDS011;49297;43.210;27.914;2022-09-17T09:14:30;6.40;;;3.88;;
63203;SDS011;49297;43.210;27.914;2022-09-17T09:17:02;14.88;;;4.35;;
63203;SDS011;49297;43.210;27.914;2022-09-17T09:19:42;8.32;;;4.10;;
63203;SDS011;49297;43.210;27.914;2022-09-17T09:28:09;10.60;;;4.25;;
63203;SDS011;49297;43.210;27.914;2022-09-17T09:33:50;8.75;;;4.80;;
63203;SDS011;49297;43.210;27.914;2022-09-17T09:36:17;10.25;;;4.55;;
63203;SDS011;49297;43.210;27.914;2022-09-17T09:38:51;12.07;;;4.03;;
63203;SDS011;49297;43.210;27.914;2022-09-17T09:44:18;6.45;;;4.03;;
63203;SDS011;49297;43.210;27.914;2022-09-17T10:00:44;6.95;;;4.22;;
63203;SDS011;49297;43.210;27.914;2022-09-17T10:03:12;7.13;;;4.70;;
63203;SDS011;49297;43.210;27.914;2022-09-17T10:05:53;11.93;;;4.35;;
63203;SDS011;49297;43.210;27.914;2022-09-17T10:08:25;13.40;;;5.57;;
63203;SDS011;49297;43.210;27.914;2022-09-17T10:11:26;11.20;;;4.50;;
63203;SDS011;49297;43.210;27.914;2022-09-17T10:13:52;11.15;;;4.75;;
63203;SDS011;49297;43.210;27.914;2022-09-17T10:16:21;11.40;;;4.93;;
63203;SDS011;49297;43.210;27.914;2022-09-17T10:18:50;7.93;;;5.68;;
63203;SDS011;49297;43.210;27.914;2022-09-17T10:26:51;7.88;;;4.97;;
63203;SDS011;49297;43.210;27.914;2022-09-17T10:29:36;10.02;;;5.25;;
63203;SDS011;49297;43.210;27.914;2022-09-17T10:32:12;10.40;;;4.93;;
63203;SDS011;49297;43.210;27.914;2022-09-17T10:34:40;14.60;;;5.07;;
63203;SDS011;49297;43.210;27.914;2022-09-17T10:45:55;11.88;;;5.13;;
63203;SDS011;49297;43.210;27.914;2022-09-17T10:48:24;6.53;;;4.32;;
63203;SDS011;49297;43.210;27.914;2022-09-17T10:50:55;10.82;;;5.18;;
63203;SDS011;49297;43.210;27.914;2022-09-17T10:53:21;10.00;;;5.23;;
63203;SDS011;49297;43.210;27.914;2022-09-17T10:58:50;9.18;;;4.38;;
63203;SDS011;49297;43.210;27.914;2022-09-17T11:04:13;11.10;;;5.53;;
63203;SDS011;49297;43.210;27.914;2022-09-17T11:12:39;12.17;;;5.50;;
63203;SDS011;49297;43.210;27.914;2022-09-17T11:15:24;12.85;;;5.63;;
63203;SDS011;49297;43.210;27.914;2022-09-17T11:32:29;10.65;;;5.18;;
63203;SDS011;49297;43.210;27.914;2022-09-17T11:35:07;6.65;;;4.85;;
63203;SDS011;49297;43.210;27.914;2022-09-17T11:37:36;8.32;;;4.57;;
63203;SDS011;49297;43.210;27.914;2022-09-17T11:45:32;11.38;;;5.40;;
63203;SDS011;49297;43.210;27.914;2022-09-17T11:51:18;11.10;;;4.90;;
63203;SDS011;49297;43.210;27.914;2022-09-17T11:53:30;10.55;;;5.05;;
63203;SDS011;49297;43.210;27.914;2022-09-17T11:56:20;9.90;;;4.57;;
63203;SDS011;49297;43.210;27.914;2022-09-17T11:59:02;6.22;;;4.22;;
63203;SDS011;49297;43.210;27.914;2022-09-17T12:12:43;9.82;;;4.90;;
63203;SDS011;49297;43.210;27.914;2022-09-17T12:15:19;9.43;;;5.47;;
63203;SDS011;49297;43.210;27.914;2022-09-17T12:17:48;6.50;;;4.13;;
63203;SDS011;49297;43.210;27.914;2022-09-17T12:20:36;7.95;;;4.82;;
63203;SDS011;49297;43.210;27.914;2022-09-17T12:23:09;8.25;;;4.80;;
63203;SDS011;49297;43.210;27.914;2022-09-17T12:25:41;8.20;;;4.10;;
63203;SDS011;49297;43.210;27.914;2022-09-17T12:28:32;9.57;;;5.38;;
63203;SDS011;49297;43.210;27.914;2022-09-17T12:31:13;10.38;;;5.15;;
63203;SDS011;49297;43.210;27.914;2022-09-17T12:36:57;7.78;;;4.93;;
63203;SDS011;49297;43.210;27.914;2022-09-17T12:42:40;7.78;;;5.35;;
63203;SDS011;49297;43.210;27.914;2022-09-17T12:48:01;10.57;;;5.50;;
63203;SDS011;49297;43.210;27.914;2022-09-17T13:01:18;12.60;;;5.43;;
63203;SDS011;49297;43.210;27.914;2022-09-17T13:03:59;7.45;;;5.18;;
63203;SDS011;49297;43.210;27.914;2022-09-17T13:12:16;10.52;;;4.97;;
63203;SDS011;49297;43.210;27.914;2022-09-17T13:22:52;10.98;;;6.43;;
63203;SDS011;49297;43.210;27.914;2022-09-17T13:25:21;6.55;;;5.35;;
63203;SDS011;49297;43.210;27.914;2022-09-17T13:27:48;8.95;;;5.75;;
63203;SDS011;49297;43.210;27.914;2022-09-17T13:30:17;10.27;;;5.72;;
63203;SDS011;49297;43.210;27.914;2022-09-17T13:32:48;14.13;;;6.82;;
63203;SDS011;49297;43.210;27.914;2022-09-17T13:40:27;10.10;;;5.80;;
63203;SDS011;49297;43.210;27.914;2022-09-17T13:45:32;19.80;;;7.85;;
63203;SDS011;49297;43.210;27.914;2022-09-17T13:48:20;26.67;;;12.15;;
63203;SDS011;49297;43.210;27.914;2022-09-17T13:50:49;23.27;;;11.95;;
63203;SDS011;49297;43.210;27.914;2022-09-17T13:53:16;17.67;;;6.10;;
63203;SDS011;49297;43.210;27.914;2022-09-17T13:55:48;12.65;;;5.78;;
63203;SDS011;49297;43.210;27.914;2022-09-17T14:21:30;20.05;;;8.50;;
63203;SDS011;49297;43.210;27.914;2022-09-17T14:24:02;14.63;;;7.93;;
63203;SDS011;49297;43.210;27.914;2022-09-17T14:32:16;7.97;;;4.22;;
63203;SDS011;49297;43.210;27.914;2022-09-17T14:34:47;6.85;;;3.95;;
63203;SDS011;49297;43.210;27.914;2022-09-17T14:37:16;8.30;;;4.07;;
63203;SDS011;49297;43.210;27.914;2022-09-17T14:39:48;9.85;;;3.58;;
63203;SDS011;49297;43.210;27.914;2022-09-17T14:42:23;5.60;;;2.65;;
63203;SDS011;49297;43.210;27.914;2022-09-17T14:45:03;6.95;;;2.85;;
63203;SDS011;49297;43.210;27.914;2022-09-17T14:47:38;6.17;;;2.70;;
63203;SDS011;49297;43.210;27.914;2022-09-17T14:53:06;8.15;;;2.72;;
63203;SDS011;49297;43.210;27.914;2022-09-17T14:55:32;8.07;;;3.53;;
63203;SDS011;49297;43.210;27.914;2022-09-17T14:58:18;4.70;;;1.85;;
63203;SDS011;49297;43.210;27.914;2022-09-17T15:00:52;5.38;;;2.22;;
63203;SDS011;49297;43.210;27.914;2022-09-17T15:03:21;6.80;;;2.67;;
63203;SDS011;49297;43.210;27.914;2022-09-17T15:05:48;4.03;;;2.00;;
63203;SDS011;49297;43.210;27.914;2022-09-17T15:08:23;2.83;;;2.00;;
63203;SDS011;49297;43.210;27.914;2022-09-17T15:10:53;6.65;;;2.95;;
63203;SDS011;49297;43.210;27.914;2022-09-17T15:18:31;4.53;;;3.08;;
63203;SDS011;49297;43.210;27.914;2022-09-17T15:21:01;5.20;;;3.03;;
63203;SDS011;49297;43.210;27.914;2022-09-17T15:23:30;8.40;;;2.88;;
63203;SDS011;49297;43.210;27.914;2022-09-17T15:25:59;5.47;;;2.50;;
63203;SDS011;49297;43.210;27.914;2022-09-17T15:30:56;6.30;;;3.65;;
63203;SDS011;49297;43.210;27.914;2022-09-17T15:33:22;7.60;;;3.30;;
63203;SDS011;49297;43.210;27.914;2022-09-17T15:36:05;9.83;;;3.47;;
63203;SDS011;49297;43.210;27.914;2022-09-17T15:38:52;3.90;;;2.63;;
63203;SDS011;49297;43.210;27.914;2022-09-17T15:41:28;6.32;;;3.22;;
63203;SDS011;49297;43.210;27.914;2022-09-17T15:46:39;6.37;;;2.60;;
63203;SDS011;49297;43.210;27.914;2022-09-17T15:49:23;6.55;;;2.83;;
63203;SDS011;49297;43.210;27.914;2022-09-17T15:52:20;4.80;;;2.80;;
63203;SDS011;49297;43.210;27.914;2022-09-17T15:54:50;4.15;;;2.40;;
63203;SDS011;49297;43.210;27.914;2022-09-17T15:57:16;6.37;;;3.03;;
63203;SDS011;49297;43.210;27.914;2022-09-17T15:59:42;4.88;;;2.83;;
63203;SDS011;49297;43.210;27.914;2022-09-17T16:02:22;7.63;;;3.67;;
63203;SDS011;49297;43.210;27.914;2022-09-17T16:05:44;5.38;;;3.20;;
63203;SDS011;49297;43.210;27.914;2022-09-17T16:07:49;5.80;;;3.17;;
63203;SDS011;49297;43.210;27.914;2022-09-17T16:10:18;5.55;;;4.25;;
63203;SDS011;49297;43.210;27.914;2022-09-17T16:12:43;5.82;;;3.47;;
63203;SDS011;49297;43.210;27.914;2022-09-17T16:15:13;5.88;;;3.53;;
63203;SDS011;49297;43.210;27.914;2022-09-17T16:17:42;7.00;;;3.60;;
63203;SDS011;49297;43.210;27.914;2022-09-17T16:20:12;8.75;;;3.70;;
63203;SDS011;49297;43.210;27.914;2022-09-17T16:22:40;6.50;;;3.80;;
63203;SDS011;49297;43.210;27.914;2022-09-17T16:25:06;8.65;;;6.40;;
63203;SDS011;49297;43.210;27.914;2022-09-17T16:27:53;11.98;;;6.20;;
63203;SDS011;49297;43.210;27.914;2022-09-17T16:30:22;12.43;;;6.53;;
63203;SDS011;49297;43.210;27.914;2022-09-17T16:32:49;7.50;;;4.97;;
63203;SDS011;49297;43.210;27.914;2022-09-17T16:35:16;6.25;;;5.22;;
63203;SDS011;49297;43.210;27.914;2022-09-17T16:37:50;10.25;;;6.25;;
63203;SDS011;49297;43.210;27.914;2022-09-17T16:40:17;8.25;;;6.00;;
63203;SDS011;49297;43.210;27.914;2022-09-17T16:42:44;10.95;;;6.78;;
63203;SDS011;49297;43.210;27.914;2022-09-17T16:45:11;10.20;;;6.10;;
63203;SDS011;49297;43.210;27.914;2022-09-17T16:47:37;10.75;;;5.30;;
63203;SDS011;49297;43.210;27.914;2022-09-17T16:50:05;12.82;;;5.05;;
63203;SDS011;49297;43.210;27.914;2022-09-17T16:52:33;13.13;;;5.32;;
63203;SDS011;49297;43.210;27.914;2022-09-17T16:55:00;10.05;;;5.40;;
63203;SDS011;49297;43.210;27.914;2022-09-17T16:57:26;9.40;;;5.53;;
63203;SDS011;49297;43.210;27.914;2022-09-17T16:59:54;8.67;;;5.80;;
63203;SDS011;49297;43.210;27.914;2022-09-17T17:02:19;11.63;;;6.45;;
63203;SDS011;49297;43.210;27.914;2022-09-17T17:04:45;10.60;;;6.73;;
63203;SDS011;49297;43.210;27.914;2022-09-17T17:09:52;15.77;;;7.40;;
63203;SDS011;49297;43.210;27.914;2022-09-17T17:12:18;12.07;;;8.20;;
63203;SDS011;49297;43.210;27.914;2022-09-17T17:14:44;15.68;;;10.15;;
63203;SDS011;49297;43.210;27.914;2022-09-17T17:17:15;12.82;;;9.48;;
63203;SDS011;49297;43.210;27.914;2022-09-17T17:19:41;14.60;;;10.93;;
63203;SDS011;49297;43.210;27.914;2022-09-17T17:22:08;13.77;;;12.50;;
63203;SDS011;49297;43.210;27.914;2022-09-17T17:24:34;15.38;;;13.80;;
63203;SDS011;49297;43.210;27.914;2022-09-17T17:27:00;15.60;;;13.82;;
63203;SDS011;49297;43.210;27.914;2022-09-17T17:29:25;23.03;;;13.83;;
63203;SDS011;49297;43.210;27.914;2022-09-17T17:31:51;15.18;;;13.30;;
63203;SDS011;49297;43.210;27.914;2022-09-17T17:34:17;17.33;;;14.37;;
63203;SDS011;49297;43.210;27.914;2022-09-17T17:36:43;17.80;;;15.40;;
63203;SDS011;49297;43.210;27.914;2022-09-17T17:39:09;19.60;;;14.70;;
63203;SDS011;49297;43.210;27.914;2022-09-17T17:41:35;15.25;;;12.98;;
63203;SDS011;49297;43.210;27.914;2022-09-17T17:44:01;16.63;;;12.43;;
63203;SDS011;49297;43.210;27.914;2022-09-17T17:46:26;13.07;;;11.68;;
63203;SDS011;49297;43.210;27.914;2022-09-17T17:48:52;15.30;;;13.60;;
63203;SDS011;49297;43.210;27.914;2022-09-17T17:51:18;19.05;;;12.60;;
63203;SDS011;49297;43.210;27.914;2022-09-17T17:53:44;18.20;;;12.07;;
63203;SDS011;49297;43.210;27.914;2022-09-17T17:56:11;13.45;;;11.15;;
63203;SDS011;49297;43.210;27.914;2022-09-17T17:58:37;14.25;;;12.68;;
63203;SDS011;49297;43.210;27.914;2022-09-17T18:01:10;16.67;;;12.40;;
63203;SDS011;49297;43.210;27.914;2022-09-17T18:03:38;10.80;;;9.15;;
63203;SDS011;49297;43.210;27.914;2022-09-17T18:06:04;12.65;;;11.35;;
63203;SDS011;49297;43.210;27.914;2022-09-17T18:11:13;18.55;;;12.27;;
63203;SDS011;49297;43.210;27.914;2022-09-17T18:13:38;13.45;;;11.05;;
63203;SDS011;49297;43.210;27.914;2022-09-17T18:16:05;17.95;;;11.50;;
63203;SDS011;49297;43.210;27.914;2022-09-17T18:18:37;15.75;;;9.82;;
63203;SDS011;49297;43.210;27.914;2022-09-17T18:21:05;17.02;;;10.43;;
63203;SDS011;49297;43.210;27.914;2022-09-17T18:23:33;21.63;;;18.00;;
63203;SDS011;49297;43.210;27.914;2022-09-17T18:26:00;27.33;;;24.90;;
63203;SDS011;49297;43.210;27.914;2022-09-17T18:28:27;21.08;;;18.92;;
63203;SDS011;49297;43.210;27.914;2022-09-17T18:30:54;20.00;;;14.98;;
63203;SDS011;49297;43.210;27.914;2022-09-17T18:33:23;15.90;;;10.77;;
63203;SDS011;49297;43.210;27.914;2022-09-17T18:35:51;15.23;;;11.32;;
63203;SDS011;49297;43.210;27.914;2022-09-17T18:38:23;14.43;;;10.15;;
63203;SDS011;49297;43.210;27.914;2022-09-17T18:40:49;14.75;;;10.20;;